createdAt,value
2023-04-15T00:01:33.861Z,58.30
2023-04-15T00:04:01.879Z,58.40
2023-04-15T00:06:29.684Z,58.50
2023-04-15T00:08:58.904Z,58.60
2023-04-15T00:11:26.843Z,58.70
2023-04-15T00:13:54.487Z,58.70
2023-04-15T00:16:22.211Z,58.80
2023-04-15T00:18:49.909Z,58.70
2023-04-15T00:21:17.585Z,58.80
2023-04-15T00:23:45.297Z,58.80
2023-04-15T00:26:14.389Z,58.90
2023-04-15T00:28:42.100Z,58.90
2023-04-15T00:31:09.827Z,58.90
2023-04-15T00:33:37.607Z,59.00
2023-04-15T00:36:06.159Z,58.90
2023-04-15T00:38:33.832Z,58.60
2023-04-15T00:41:01.568Z,58.50
2023-04-15T00:43:30.570Z,58.50
2023-04-15T00:45:58.387Z,58.60
2023-04-15T00:48:26.105Z,58.70
2023-04-15T00:50:54.138Z,58.80
2023-04-15T00:53:21.800Z,58.90
2023-04-15T00:55:49.514Z,59.00
2023-04-15T00:58:17.181Z,59.10
2023-04-15T01:00:46.347Z,59.10
2023-04-15T01:03:14.170Z,59.20
2023-04-15T01:05:42.309Z,59.20
2023-04-15T01:08:10.526Z,59.40
2023-04-15T01:10:38.183Z,59.40
2023-04-15T01:13:05.878Z,59.50
2023-04-15T01:15:34.388Z,59.60
2023-04-15T01:18:03.443Z,59.70
2023-04-15T01:20:31.161Z,59.70
2023-04-15T01:23:01.198Z,59.70
2023-04-15T01:25:33.137Z,59.70
2023-04-15T01:28:00.871Z,59.80
2023-04-15T01:30:29.108Z,59.80
2023-04-15T01:32:56.976Z,59.90
2023-04-15T01:35:24.953Z,59.90
2023-04-15T01:37:52.680Z,60.00
2023-04-15T01:40:20.395Z,59.90
2023-04-15T01:42:49.406Z,60.00
2023-04-15T01:45:17.439Z,60.20
2023-04-15T01:47:45.282Z,60.20
2023-04-15T01:50:13.037Z,60.20
2023-04-15T01:52:40.938Z,60.30
2023-04-15T01:55:09.706Z,60.20
2023-04-15T01:57:37.840Z,60.40
2023-04-15T02:00:09.798Z,60.40
2023-04-15T02:02:44.796Z,60.60
2023-04-15T02:05:12.597Z,60.60
2023-04-15T02:07:40.300Z,60.70
2023-04-15T02:10:09.363Z,60.70
2023-04-15T02:12:37.231Z,60.80
2023-04-15T02:15:05.617Z,60.90
2023-04-15T02:17:36.619Z,60.80
2023-04-15T02:20:05.887Z,61.20
2023-04-15T02:22:33.551Z,61.00
2023-04-15T02:25:01.297Z,61.00
2023-04-15T02:27:29.027Z,61.20
2023-04-15T02:29:56.684Z,61.30
2023-04-15T02:32:24.431Z,61.30
2023-04-15T02:34:53.501Z,61.40
2023-04-15T02:37:21.373Z,61.40
2023-04-15T02:39:49.053Z,61.40
2023-04-15T02:42:16.888Z,61.30
2023-04-15T02:44:44.581Z,61.40
2023-04-15T02:47:12.298Z,61.60
2023-04-15T02:49:40.214Z,61.80
2023-04-15T02:52:09.932Z,62.00
2023-04-15T02:54:37.668Z,62.10
2023-04-15T02:57:06.783Z,62.10
2023-04-15T02:59:34.641Z,62.20
2023-04-15T03:02:02.564Z,62.20
2023-04-15T03:04:30.800Z,62.30
2023-04-15T03:06:58.460Z,62.30
2023-04-15T03:09:29.076Z,62.20
2023-04-15T03:11:57.392Z,62.40
2023-04-15T03:14:26.942Z,62.40
2023-04-15T03:16:56.184Z,62.40
2023-04-15T03:19:24.766Z,62.50
2023-04-15T03:21:52.714Z,62.50
2023-04-15T03:24:21.195Z,62.50
2023-04-15T03:26:50.190Z,62.60
2023-04-15T03:29:18.770Z,62.60
2023-04-15T03:31:47.185Z,62.70
2023-04-15T03:34:14.888Z,62.70
2023-04-15T03:36:42.637Z,62.80
2023-04-15T03:39:10.300Z,62.80
2023-04-15T03:41:38.003Z,62.90
2023-04-15T03:44:07.171Z,63.00
2023-04-15T03:46:34.904Z,63.00
2023-04-15T03:49:03.369Z,62.90
2023-04-15T03:51:31.275Z,62.90
2023-04-15T03:53:59.392Z,63.00
2023-04-15T03:56:27.115Z,63.10
2023-04-15T03:58:54.806Z,63.10
2023-04-15T04:01:24.010Z,63.10
2023-04-15T04:03:51.816Z,63.30
2023-04-15T04:06:19.713Z,63.20
2023-04-15T04:08:47.369Z,63.20
2023-04-15T04:11:15.167Z,63.30
2023-04-15T04:13:42.852Z,63.30
2023-04-15T04:16:10.948Z,63.40
2023-04-15T04:18:40.099Z,63.10
2023-04-15T04:21:07.795Z,62.90
2023-04-15T04:23:35.541Z,62.80
2023-04-15T04:26:03.243Z,62.80
2023-04-15T04:28:30.937Z,62.70
2023-04-15T04:30:58.600Z,62.80
2023-04-15T04:33:26.394Z,63.10
2023-04-15T04:35:55.515Z,63.10
2023-04-15T04:38:23.175Z,63.30
2023-04-15T04:40:50.814Z,63.20
2023-04-15T04:43:18.468Z,63.20
2023-04-15T04:45:46.425Z,63.30
2023-04-15T04:48:14.098Z,63.30
2023-04-15T04:50:41.942Z,63.40
2023-04-15T04:53:10.934Z,63.40
2023-04-15T04:55:38.626Z,63.40
2023-04-15T04:58:06.295Z,63.40
2023-04-15T05:00:34.068Z,63.50
2023-04-15T05:03:01.925Z,63.60
2023-04-15T05:05:29.709Z,63.60
2023-04-15T05:07:57.390Z,63.60
2023-04-15T05:10:26.473Z,63.70
2023-04-15T05:12:54.186Z,63.80
2023-04-15T05:15:21.985Z,63.80
2023-04-15T05:17:49.700Z,63.80
2023-04-15T05:20:17.733Z,63.70
2023-04-15T05:22:45.437Z,63.90
2023-04-15T05:25:13.906Z,63.90
2023-04-15T05:27:42.954Z,63.90
2023-04-15T05:30:13.320Z,64.00
2023-04-15T05:32:41.486Z,64.20
2023-04-15T05:35:09.369Z,64.30
2023-04-15T05:37:37.034Z,64.40
2023-04-15T05:40:05.307Z,64.30
2023-04-15T05:42:33.020Z,64.30
2023-04-15T05:45:05.284Z,64.30
2023-04-15T05:47:33.072Z,64.50
2023-04-15T05:50:00.835Z,64.40
2023-04-15T05:52:28.505Z,64.40
2023-04-15T05:54:56.345Z,64.40
2023-04-15T05:57:24.124Z,64.50
2023-04-15T05:59:52.795Z,64.50
2023-04-15T06:02:22.139Z,64.50
2023-04-15T06:04:49.960Z,64.60
2023-04-15T06:07:17.672Z,64.60
2023-04-15T06:09:45.826Z,64.60
2023-04-15T06:12:13.720Z,64.70
2023-04-15T06:14:41.500Z,64.80
2023-04-15T06:17:09.230Z,64.80
2023-04-15T06:19:38.546Z,64.80
2023-04-15T06:22:07.302Z,65.70
2023-04-15T06:24:36.947Z,64.90
2023-04-15T06:27:04.800Z,64.90
2023-04-15T06:29:32.507Z,64.90
2023-04-15T06:32:00.545Z,65.00
2023-04-15T06:34:28.310Z,65.10
2023-04-15T06:36:57.454Z,65.30
2023-04-15T06:39:25.172Z,65.30
2023-04-15T06:41:52.936Z,65.40
2023-04-15T06:44:22.481Z,65.40
2023-04-15T06:46:50.223Z,66.20
2023-04-15T06:49:17.943Z,65.50
2023-04-15T06:51:45.685Z,65.50
2023-04-15T06:54:14.708Z,65.60
2023-04-15T06:56:42.439Z,66.50
2023-04-15T06:59:10.159Z,65.60
2023-04-15T07:01:37.846Z,65.60
2023-04-15T07:04:06.128Z,65.60
2023-04-15T07:06:33.870Z,65.80
2023-04-15T07:09:01.943Z,65.70
2023-04-15T07:11:31.064Z,65.70
2023-04-15T07:13:58.967Z,65.70
2023-04-15T07:16:28.599Z,65.80
2023-04-15T07:18:57.551Z,65.90
2023-04-15T07:21:25.635Z,65.90
2023-04-15T07:23:53.331Z,65.80
2023-04-15T07:26:21.392Z,65.80
2023-04-15T07:28:50.590Z,65.70
2023-04-15T07:31:18.421Z,65.70
2023-04-15T07:33:46.236Z,65.70
2023-04-15T07:36:14.131Z,65.90
2023-04-15T07:38:42.509Z,65.80
2023-04-15T07:41:10.540Z,65.80
2023-04-15T07:43:38.381Z,65.90
2023-04-15T07:46:07.575Z,65.90
2023-04-15T07:48:36.327Z,65.90
2023-04-15T07:51:05.525Z,65.80
2023-04-15T07:53:33.871Z,65.80
2023-04-15T07:56:01.628Z,65.80
2023-04-15T07:58:29.280Z,65.90
2023-04-15T08:00:57.058Z,65.90
2023-04-15T08:03:26.391Z,65.80
2023-04-15T08:05:54.269Z,65.90
2023-04-15T08:08:22.207Z,65.30
2023-04-15T08:10:52.492Z,64.60
2023-04-15T08:13:20.700Z,64.30
2023-04-15T08:15:54.899Z,64.00
2023-04-15T08:18:22.703Z,63.80
2023-04-15T08:20:52.104Z,64.60
2023-04-15T08:23:19.817Z,65.50
2023-04-15T08:25:47.545Z,65.50
2023-04-15T08:28:17.247Z,65.80
2023-04-15T08:30:44.903Z,67.00
2023-04-15T08:33:12.589Z,66.80
2023-04-15T08:35:40.296Z,69.00
2023-04-15T08:38:09.320Z,67.30
2023-04-15T08:40:41.256Z,68.30
2023-04-15T08:43:09.163Z,68.90
2023-04-15T08:45:37.168Z,69.20
2023-04-15T08:48:05.081Z,70.70
2023-04-15T08:50:33.101Z,71.70
2023-04-15T08:53:00.882Z,74.00
2023-04-15T08:55:33.665Z,74.10
2023-04-15T08:58:02.301Z,74.20
2023-04-15T09:00:30.085Z,68.30
2023-04-15T09:02:57.913Z,67.80
2023-04-15T09:05:25.612Z,70.30
2023-04-15T09:07:53.333Z,72.20
2023-04-15T09:10:21.015Z,73.50
2023-04-15T09:12:50.000Z,74.40
2023-04-15T09:15:17.883Z,75.60
2023-04-15T09:17:46.172Z,75.40
2023-04-15T09:20:15.166Z,76.10
2023-04-15T09:22:43.144Z,77.50
2023-04-15T09:25:26.449Z,77.20
2023-04-15T09:27:56.273Z,81.30
2023-04-15T09:30:24.106Z,79.20
2023-04-15T09:32:52.374Z,78.70
2023-04-15T09:35:20.767Z,80.10
2023-04-15T09:37:48.510Z,81.40
2023-04-15T09:40:16.384Z,81.20
2023-04-15T09:42:57.634Z,81.40
2023-04-15T09:45:28.899Z,82.50
2023-04-15T09:47:59.209Z,81.40
2023-04-15T09:50:28.759Z,82.40
2023-04-15T09:52:56.637Z,83.00
2023-04-15T09:55:24.504Z,83.30
2023-04-15T09:57:52.356Z,84.00
2023-04-15T10:00:21.519Z,83.30
2023-04-15T10:02:49.690Z,83.60
2023-04-15T10:05:17.874Z,83.40
2023-04-15T10:07:45.769Z,83.90
2023-04-15T10:10:14.003Z,83.40
2023-04-15T10:12:42.433Z,84.00
2023-04-15T10:15:13.340Z,83.50
2023-04-15T10:17:42.568Z,83.80
2023-04-15T10:20:12.454Z,83.30
2023-04-15T10:22:40.217Z,84.50
2023-04-15T10:25:08.449Z,84.80
2023-04-15T10:27:36.124Z,84.60
2023-04-15T10:30:04.011Z,85.00
2023-04-15T10:32:31.759Z,84.90
2023-04-15T10:35:00.845Z,85.40
2023-04-15T10:37:35.500Z,85.00
2023-04-15T10:40:10.986Z,85.60
2023-04-15T10:42:38.686Z,86.70
2023-04-15T10:45:09.303Z,87.90
2023-04-15T10:47:36.997Z,88.20
2023-04-15T10:50:07.114Z,88.00
2023-04-15T10:52:34.836Z,87.90
2023-04-15T10:55:14.200Z,87.10
2023-04-15T10:57:42.611Z,88.30
2023-04-15T11:00:14.514Z,88.00
2023-04-15T11:02:44.017Z,87.70
2023-04-15T11:05:13.539Z,88.30
2023-04-15T11:07:43.448Z,87.80
2023-04-15T11:10:58.678Z,87.50
2023-04-15T11:13:31.333Z,88.80
2023-04-15T11:16:01.302Z,87.80
2023-04-15T11:18:31.324Z,87.50
2023-04-15T11:21:01.588Z,87.80
2023-04-15T11:23:31.186Z,88.30
2023-04-15T11:25:59.858Z,88.50
2023-04-15T11:28:28.659Z,87.60
2023-04-15T11:30:56.633Z,87.50
2023-04-15T11:33:24.906Z,87.80
2023-04-15T11:35:53.873Z,87.00
2023-04-15T11:38:23.253Z,87.40
2023-04-15T11:40:51.563Z,87.00
2023-04-15T11:43:20.812Z,85.70
2023-04-15T11:45:53.585Z,88.00
2023-04-15T11:48:22.697Z,86.50
2023-04-15T11:50:54.470Z,85.70
2023-04-15T11:53:23.737Z,77.90
2023-04-15T11:55:52.658Z,68.50
2023-04-15T11:58:21.290Z,64.50
2023-04-15T12:00:50.232Z,62.80
2023-04-15T12:03:24.901Z,63.40
2023-04-15T12:06:12.702Z,65.60
2023-04-15T12:09:01.835Z,67.10
2023-04-15T12:11:31.204Z,69.90
2023-04-15T12:13:59.757Z,70.60
2023-04-15T12:16:29.145Z,71.20
2023-04-15T12:18:57.620Z,71.80
2023-04-15T12:21:26.702Z,73.20
2023-04-15T12:23:54.868Z,73.50
2023-04-15T12:26:29.168Z,71.20
2023-04-15T12:28:57.197Z,71.60
2023-04-15T12:31:25.002Z,72.70
2023-04-15T12:33:52.714Z,73.90
2023-04-15T12:36:20.392Z,75.30
2023-04-15T12:38:48.059Z,75.40
2023-04-15T12:41:15.910Z,76.90
2023-04-15T12:43:45.519Z,75.40
2023-04-15T12:46:13.270Z,75.70
2023-04-15T12:48:41.306Z,76.30
2023-04-15T12:51:09.044Z,77.30
2023-04-15T12:53:37.194Z,77.60
2023-04-15T12:56:05.168Z,78.70
2023-04-15T12:58:33.285Z,79.80
2023-04-15T13:01:02.436Z,81.80
2023-04-15T13:03:30.341Z,82.00
2023-04-15T13:05:58.215Z,81.60
2023-04-15T13:08:25.937Z,81.60
2023-04-15T13:10:53.638Z,82.80
2023-04-15T13:13:21.526Z,82.20
2023-04-15T13:15:49.400Z,83.00
2023-04-15T13:18:18.458Z,83.50
2023-04-15T13:20:46.143Z,84.50
2023-04-15T13:23:13.849Z,84.60
2023-04-15T13:25:41.506Z,84.50
2023-04-15T13:28:09.159Z,84.00
2023-04-15T13:30:38.582Z,84.90
2023-04-15T13:33:06.359Z,76.50
2023-04-15T13:35:35.445Z,70.70
2023-04-15T13:38:03.134Z,67.40
2023-04-15T13:40:30.934Z,66.50
2023-04-15T13:42:59.786Z,63.10
2023-04-15T13:45:27.612Z,59.40
2023-04-15T13:47:56.434Z,59.20
2023-04-15T13:50:24.221Z,59.00
2023-04-15T13:52:53.241Z,59.20
2023-04-15T13:55:23.070Z,59.10
2023-04-15T13:57:52.267Z,58.30
2023-04-15T14:00:19.955Z,59.40
2023-04-15T14:02:47.711Z,59.50
2023-04-15T14:05:15.451Z,62.50
2023-04-15T14:07:43.208Z,60.10
2023-04-15T14:10:12.219Z,62.10
2023-04-15T14:12:39.900Z,64.10
2023-04-15T14:15:08.377Z,59.80
2023-04-15T14:17:36.105Z,58.40
2023-04-15T14:20:04.193Z,57.80
2023-04-15T14:22:31.883Z,56.50
2023-04-15T14:25:00.151Z,59.40
2023-04-15T14:27:29.328Z,59.70
2023-04-15T14:29:57.746Z,61.70
2023-04-15T14:32:26.261Z,63.80
2023-04-15T14:34:54.049Z,61.10
2023-04-15T14:37:21.766Z,57.30
2023-04-15T14:39:49.460Z,56.40
2023-04-15T14:42:17.197Z,59.60
2023-04-15T14:44:46.317Z,56.80
2023-04-15T14:47:14.012Z,56.20
2023-04-15T14:49:41.679Z,58.80
2023-04-15T14:52:09.383Z,58.40
2023-04-15T14:54:37.108Z,56.00
2023-04-15T14:57:05.233Z,59.90
2023-04-15T14:59:32.958Z,59.00
2023-04-15T15:02:02.044Z,61.10
2023-04-15T15:04:30.432Z,63.90
2023-04-15T15:06:58.250Z,61.20
2023-04-15T15:09:26.548Z,56.10
2023-04-15T15:11:54.216Z,59.30
2023-04-15T15:14:21.972Z,57.50
2023-04-15T15:16:49.823Z,57.10
2023-04-15T15:19:18.858Z,56.40
2023-04-15T15:21:46.912Z,55.20
2023-04-15T15:24:14.646Z,53.70
2023-04-15T15:26:42.402Z,53.40
2023-04-15T15:29:10.210Z,55.60
2023-04-15T15:31:37.961Z,55.90
2023-04-15T15:34:05.837Z,53.50
2023-04-15T15:36:34.800Z,57.70
2023-04-15T15:39:02.766Z,60.00
2023-04-15T15:41:33.302Z,62.40
2023-04-15T15:44:01.011Z,60.80
2023-04-15T15:46:31.165Z,62.50
2023-04-15T15:48:59.012Z,61.60
2023-04-15T15:51:27.534Z,61.40
2023-04-15T15:53:56.546Z,63.60
2023-04-15T15:56:24.296Z,63.90
2023-04-15T15:58:51.981Z,66.60
2023-04-15T16:01:19.770Z,65.10
2023-04-15T16:03:47.570Z,66.00
2023-04-15T16:06:15.274Z,66.30
2023-04-15T16:08:42.962Z,66.40
2023-04-15T16:11:11.971Z,67.10
2023-04-15T16:13:39.704Z,68.50
2023-04-15T16:16:07.903Z,70.00
2023-04-15T16:18:35.822Z,70.90
2023-04-15T16:21:03.521Z,72.30
2023-04-15T16:23:31.352Z,72.80
2023-04-15T16:25:59.190Z,73.90
2023-04-15T16:28:28.171Z,74.30
2023-04-15T16:30:56.169Z,75.10
2023-04-15T16:33:23.894Z,75.40
2023-04-15T16:35:52.135Z,75.00
2023-04-15T16:38:19.867Z,76.10
2023-04-15T16:40:47.550Z,76.40
2023-04-15T16:43:15.270Z,77.10
2023-04-15T16:45:45.272Z,76.20
2023-04-15T16:48:13.084Z,75.30
2023-04-15T16:50:40.806Z,74.70
2023-04-15T16:53:08.551Z,75.40
2023-04-15T16:55:36.323Z,75.00
2023-04-15T16:58:05.462Z,74.40
2023-04-15T17:00:36.476Z,74.30
2023-04-15T17:03:06.159Z,74.40
2023-04-15T17:05:34.116Z,74.30
2023-04-15T17:08:01.873Z,74.70
2023-04-15T17:10:29.647Z,75.60
2023-04-15T17:12:57.579Z,74.90
2023-04-15T17:15:25.375Z,74.90
2023-04-15T17:17:53.136Z,74.60
2023-04-15T17:20:22.289Z,75.20
2023-04-15T17:22:49.959Z,75.30
2023-04-15T17:25:17.626Z,75.40
2023-04-15T17:27:45.285Z,75.30
2023-04-15T17:30:13.325Z,75.30
2023-04-15T17:32:41.041Z,75.60
2023-04-15T17:35:09.539Z,75.60
2023-04-15T17:37:38.579Z,75.40
2023-04-15T17:40:08.773Z,75.70
2023-04-15T17:42:36.797Z,75.80
2023-04-15T17:45:04.764Z,75.80
2023-04-15T17:47:32.531Z,75.90
2023-04-15T17:50:00.298Z,75.80
2023-04-15T17:52:27.983Z,75.80
2023-04-15T17:54:57.090Z,75.90
2023-04-15T17:57:25.161Z,75.80
2023-04-15T17:59:52.887Z,75.60
2023-04-15T18:02:20.777Z,75.80
2023-04-15T18:04:49.842Z,75.70
2023-04-15T18:07:17.648Z,75.90
2023-04-15T18:09:45.598Z,75.70
2023-04-15T18:12:14.598Z,75.60
2023-04-15T18:14:42.280Z,75.70
2023-04-15T18:17:09.964Z,75.80
2023-04-15T18:19:37.650Z,76.00
2023-04-15T18:22:05.436Z,75.90
2023-04-15T18:24:33.633Z,75.90
2023-04-15T18:27:01.545Z,75.90
2023-04-15T18:29:31.780Z,75.90
2023-04-15T18:32:00.171Z,76.00
2023-04-15T18:34:28.083Z,75.90
2023-04-15T18:36:56.659Z,75.90
2023-04-15T18:39:24.619Z,76.00
2023-04-15T18:41:52.296Z,75.90
2023-04-15T18:44:20.021Z,76.00
2023-04-15T18:46:49.099Z,76.00
2023-04-15T18:49:16.769Z,76.00
2023-04-15T18:51:44.445Z,76.00
2023-04-15T18:54:12.124Z,76.10
2023-04-15T18:56:39.889Z,76.10
2023-04-15T18:59:10.150Z,76.20
2023-04-15T19:01:56.661Z,76.20
2023-04-15T19:04:24.391Z,76.40
2023-04-15T19:06:52.167Z,76.40
2023-04-15T19:09:19.845Z,76.40
2023-04-15T19:11:47.600Z,76.50
2023-04-15T19:14:15.298Z,76.50
2023-04-15T19:16:43.078Z,76.80
2023-04-15T19:19:14.297Z,76.80
2023-04-15T19:21:42.060Z,77.00
2023-04-15T19:24:09.754Z,77.30
2023-04-15T19:26:37.552Z,77.50
2023-04-15T19:29:05.491Z,77.80
2023-04-15T19:31:33.259Z,77.70
2023-04-15T19:34:00.942Z,77.90
2023-04-15T19:36:29.980Z,78.10
2023-04-15T19:38:57.696Z,78.30
2023-04-15T19:41:25.376Z,78.50
2023-04-15T19:43:53.056Z,79.00
2023-04-15T19:46:20.738Z,79.30
2023-04-15T19:48:48.478Z,80.00
2023-04-15T19:51:16.145Z,80.50
2023-04-15T19:53:45.418Z,81.10
2023-04-15T19:56:13.091Z,82.00
2023-04-15T19:58:40.782Z,82.40
2023-04-15T20:01:08.497Z,82.60
2023-04-15T20:03:36.323Z,82.90
2023-04-15T20:06:04.242Z,83.10
2023-04-15T20:08:31.886Z,83.40
2023-04-15T20:11:01.611Z,84.00
2023-04-15T20:13:29.298Z,84.60
2023-04-15T20:15:57.044Z,84.60
2023-04-15T20:18:24.809Z,85.00
2023-04-15T20:20:52.491Z,85.10
2023-04-15T20:23:20.186Z,86.10
2023-04-15T20:25:47.853Z,86.20
2023-04-15T20:28:18.018Z,86.20
2023-04-15T20:30:45.754Z,87.40
2023-04-15T20:33:14.528Z,87.10
2023-04-15T20:35:42.176Z,87.10
2023-04-15T20:38:10.455Z,88.30
2023-04-15T20:40:39.440Z,87.80
2023-04-15T20:43:08.474Z,88.20
2023-04-15T20:45:37.476Z,89.00
2023-04-15T20:48:05.935Z,88.90
2023-04-15T20:50:33.648Z,88.80
2023-04-15T20:53:01.371Z,89.00
2023-04-15T20:55:30.672Z,88.50
2023-04-15T20:57:58.916Z,88.40
2023-04-15T21:00:26.712Z,88.60
2023-04-15T21:02:55.936Z,88.50
2023-04-15T21:05:23.723Z,89.10
2023-04-15T21:07:51.377Z,89.00
2023-04-15T21:10:19.117Z,89.10
2023-04-15T21:12:46.808Z,88.70
2023-04-15T21:15:14.483Z,88.40
2023-04-15T21:17:42.164Z,88.10
2023-04-15T21:20:12.508Z,87.90
2023-04-15T21:22:40.243Z,87.40
2023-04-15T21:25:08.620Z,87.00
2023-04-15T21:27:36.276Z,86.70
2023-04-15T21:30:04.169Z,86.50
2023-04-15T21:32:31.848Z,86.00
2023-04-15T21:34:59.570Z,85.70
2023-04-15T21:37:28.638Z,85.50
2023-04-15T21:39:56.436Z,85.20
2023-04-15T21:42:24.407Z,84.50
2023-04-15T21:44:52.150Z,84.40
2023-04-15T21:47:20.175Z,84.20
2023-04-15T21:49:48.005Z,84.10
2023-04-15T21:52:15.642Z,83.20
2023-04-15T21:54:44.633Z,82.80
2023-04-15T21:57:12.303Z,82.60
2023-04-15T21:59:40.006Z,82.20
2023-04-15T22:02:07.706Z,81.60
2023-04-15T22:04:35.468Z,81.10
2023-04-15T22:07:03.453Z,80.90
2023-04-15T22:09:31.148Z,80.50
2023-04-15T22:12:00.910Z,80.20
2023-04-15T22:14:29.092Z,79.40
2023-04-15T22:16:56.884Z,78.90
2023-04-15T22:19:25.819Z,78.50
2023-04-15T22:21:53.488Z,78.20
2023-04-15T22:24:36.696Z,77.40
2023-04-15T22:27:09.022Z,77.00
2023-04-15T22:29:36.702Z,75.90
2023-04-15T22:32:04.381Z,75.80
2023-04-15T22:34:32.066Z,75.40
2023-04-15T22:36:59.756Z,74.90
2023-04-15T22:39:27.501Z,73.90
2023-04-15T22:41:56.634Z,73.60
2023-04-15T22:44:25.683Z,73.10
2023-04-15T22:46:53.330Z,71.70
2023-04-15T22:49:20.983Z,71.90
2023-04-15T22:51:48.701Z,71.40
2023-04-15T22:54:16.429Z,71.00
2023-04-15T22:56:44.112Z,70.30
2023-04-15T22:59:11.841Z,70.00
2023-04-15T23:01:40.912Z,69.30
2023-04-15T23:04:09.814Z,68.60
2023-04-15T23:06:50.768Z,67.80
2023-04-15T23:09:18.446Z,67.10
2023-04-15T23:11:46.164Z,67.10
2023-04-15T23:14:13.882Z,66.50
2023-04-15T23:16:42.864Z,65.60
2023-04-15T23:19:10.842Z,65.10
2023-04-15T23:21:38.735Z,64.60
2023-04-15T23:24:06.848Z,63.90
2023-04-15T23:26:34.558Z,63.30
2023-04-15T23:29:02.210Z,62.80
2023-04-15T23:31:29.921Z,62.30
2023-04-15T23:33:59.049Z,61.30
2023-04-15T23:36:27.188Z,60.20
2023-04-15T23:38:54.917Z,60.20
2023-04-15T23:41:22.757Z,59.80
2023-04-15T23:43:50.637Z,59.30
2023-04-15T23:46:18.322Z,58.70
2023-04-15T23:48:47.689Z,58.30
2023-04-15T23:51:17.472Z,57.90
2023-04-15T23:53:45.403Z,57.00
2023-04-15T23:56:13.055Z,57.10
2023-04-15T23:58:40.735Z,56.50
